Time;durP1;ratioP1;P1;durP2;ratioP2;P2;SDS_P1;SDS_P2;PMS_P1;PMS_P2;Temp;Humidity;BMP_temperature;BMP_pressure;BME280_temperature;BME280_humidity;BME280_pressure;Samples;Min_cycle;Max_cycle;Signal;HPM_P1;HPM_P2
2022/06/13 00:02:30;;;;;;;4.03;2.10;;;;;;;22.77;41.86;97918.69;8318443;28;20240;-75
2022/06/13 00:06:33;;;;;;;4.03;2.20;;;;;;;22.71;42.00;97916.63;8318449;28;20239;-75
2022/06/13 00:10:36;;;;;;;3.97;2.03;;;;;;;22.71;41.61;97921.06;8318192;28;20229;-76
2022/06/13 00:14:40;;;;;;;4.73;1.87;;;;;;;22.67;40.78;97909.97;8318210;28;20252;-75
2022/06/13 00:18:47;;;;;;;3.97;1.93;;;;;;;22.67;39.71;97917.06;8318044;28;20520;-75
2022/06/13 00:22:50;;;;;;;3.67;1.90;;;;;;;22.68;39.29;97930.13;8317852;28;20543;-75
2022/06/13 00:26:53;;;;;;;4.70;1.80;;;;;;;22.64;39.05;97934.03;8317701;28;20236;-75
2022/06/13 00:30:57;;;;;;;3.03;1.70;;;;;;;22.69;38.75;97930.94;8317604;28;20237;-76
2022/06/13 00:35:01;;;;;;;3.57;1.77;;;;;;;22.64;38.19;97934.03;8316729;28;20440;-75
2022/06/13 00:39:05;;;;;;;4.30;2.10;;;;;;;22.66;38.42;97929.44;8317155;28;20240;-75
2022/06/13 00:43:08;;;;;;;4.13;1.80;;;;;;;22.61;37.86;97929.03;8317028;28;20247;-76
2022/06/13 00:47:13;;;;;;;3.33;1.70;;;;;;;22.63;36.98;97941.09;8316936;28;20232;-76
2022/06/13 00:51:16;;;;;;;3.57;1.57;;;;;;;22.62;38.00;97957.09;8316968;28;20228;-75
2022/06/13 00:55:23;;;;;;;3.70;1.70;;;;;;;22.63;37.76;97961.38;8316864;28;20243;-75
2022/06/13 00:59:27;;;;;;;3.80;1.50;;;;;;;22.57;38.08;97957.53;8324496;28;20232;-75
2022/06/13 01:03:33;;;;;;;7.57;1.77;;;;;;;22.52;37.83;97974.75;8316673;28;20232;-75
2022/06/13 01:07:37;;;;;;;4.10;1.80;;;;;;;22.45;38.31;97974.50;8316596;28;20242;-75
2022/06/13 01:11:44;;;;;;;3.40;1.83;;;;;;;22.47;39.44;97971.75;8316445;28;20434;-75
2022/06/13 01:15:57;;;;;;;2.97;1.80;;;;;;;22.46;40.23;97968.25;8316278;28;20240;-75
2022/06/13 01:20:21;;;;;;;7.00;2.00;;;;;;;22.42;40.11;97954.50;8316066;28;20300;-76
2022/06/13 01:24:43;;;;;;;2.80;1.80;;;;;;;22.36;40.29;97957.72;8315725;28;20526;-74
2022/06/13 01:29:09;;;;;;;3.77;2.00;;;;;;;22.33;39.83;97952.75;8315840;28;20231;-76
2022/06/13 01:33:18;;;;;;;3.27;1.80;;;;;;;22.29;39.73;97953.97;8315827;28;20577;-75
2022/06/13 01:37:30;;;;;;;6.23;2.10;;;;;;;22.27;39.34;97969.13;8315641;28;20244;-75
2022/06/13 01:41:38;;;;;;;6.20;2.10;;;;;;;22.29;39.09;97976.91;8321756;28;20241;-75
2022/06/13 01:45:47;;;;;;;3.43;1.77;;;;;;;22.18;40.29;97986.63;8315367;28;20234;-76
2022/06/13 01:49:59;;;;;;;4.23;2.13;;;;;;;22.26;41.12;98001.75;8315427;28;20524;-75
2022/06/13 01:54:11;;;;;;;6.67;2.10;;;;;;;22.16;40.73;97996.47;8315311;28;20299;-76
2022/06/13 01:58:18;;;;;;;3.80;1.83;;;;;;;22.14;39.93;97989.66;8315095;28;20238;-75
2022/06/13 02:02:30;;;;;;;5.17;2.13;;;;;;;22.15;39.79;97973.69;8314965;28;20239;-75
2022/06/13 02:06:39;;;;;;;4.77;2.00;;;;;;;21.92;40.39;97965.25;8321398;28;20237;-75
2022/06/13 02:10:45;;;;;;;4.93;2.10;;;;;;;22.03;39.91;97967.75;8314943;28;20441;-76
2022/06/13 02:14:50;;;;;;;4.60;2.30;;;;;;;22.02;39.98;97958.16;8314806;28;20519;-75
2022/06/13 02:18:57;;;;;;;3.50;2.30;;;;;;;21.89;39.79;97940.97;8314707;28;20228;-76
2022/06/13 02:23:06;;;;;;;3.87;2.10;;;;;;;21.77;39.92;97958.75;8314582;28;20241;-75
2022/06/13 02:27:11;;;;;;;5.90;2.43;;;;;;;21.75;40.42;97964.16;8314606;28;20251;-75
2022/06/13 02:31:18;;;;;;;6.07;2.50;;;;;;;21.63;41.81;97974.00;8314530;28;20462;-75
2022/06/13 02:35:24;;;;;;;5.10;2.40;;;;;;;21.55;42.02;97967.75;8314419;28;20296;-76
2022/06/13 02:39:32;;;;;;;4.53;2.60;;;;;;;21.47;42.08;97971.88;8321617;28;20224;-75
2022/06/13 02:43:38;;;;;;;9.27;2.60;;;;;;;21.41;41.58;97961.03;8314189;28;20244;-75
2022/06/13 02:47:46;;;;;;;4.23;2.30;;;;;;;21.35;41.86;97966.88;8314386;28;20248;-75
2022/06/13 02:51:54;;;;;;;3.80;2.20;;;;;;;21.33;41.96;97974.91;8314168;28;20526;-76
2022/06/13 02:56:08;;;;;;;4.87;2.43;;;;;;;21.20;41.88;97983.03;8315017;28;20235;-75
2022/06/13 03:00:20;;;;;;;4.67;2.40;;;;;;;21.13;41.98;97988.97;8320424;28;20232;-76
2022/06/13 03:04:31;;;;;;;3.20;2.10;;;;;;;21.01;42.59;97989.06;8328131;28;20231;-75
2022/06/13 03:08:44;;;;;;;4.87;2.33;;;;;;;20.92;42.53;97997.75;8320299;28;20240;-75
2022/06/13 03:12:56;;;;;;;5.03;2.20;;;;;;;20.90;42.69;98002.31;8320219;28;20413;-75
2022/06/13 03:17:03;;;;;;;4.63;2.27;;;;;;;20.85;43.35;97997.47;8319869;28;20243;-75
2022/06/13 03:21:10;;;;;;;5.60;2.20;;;;;;;20.77;43.61;97999.09;8319826;28;20560;-76
2022/06/13 03:25:19;;;;;;;6.00;2.30;;;;;;;20.67;43.86;97997.22;8319763;28;20228;-76
2022/06/13 03:29:27;;;;;;;3.93;2.30;;;;;;;20.54;44.07;97993.94;8319225;28;20425;-74
2022/06/13 03:33:41;;;;;;;5.07;2.07;;;;;;;20.59;43.87;97994.41;8319578;28;20550;-75
2022/06/13 03:37:46;;;;;;;4.10;1.90;;;;;;;20.54;44.05;98001.00;8319403;28;20226;-75
2022/06/13 03:41:52;;;;;;;4.67;2.30;;;;;;;20.52;43.99;97998.50;8318914;28;20237;-75
2022/06/13 03:45:58;;;;;;;4.27;2.00;;;;;;;20.53;44.11;97991.47;8319020;28;20272;-75
2022/06/13 03:50:09;;;;;;;5.23;2.20;;;;;;;20.45;44.42;97989.50;8319021;28;20543;-75
2022/06/13 03:54:14;;;;;;;6.87;2.33;;;;;;;20.40;44.84;97976.72;8318827;28;20243;-76
2022/06/13 03:58:23;;;;;;;9.77;2.30;;;;;;;20.37;44.67;97979.63;8318675;28;20228;-75
2022/06/13 04:02:30;;;;;;;4.67;2.30;;;;;;;20.44;44.52;97987.81;8318168;28;20567;-74
2022/06/13 04:06:36;;;;;;;6.60;2.30;;;;;;;20.35;44.66;97997.28;8318515;28;20243;-75
2022/06/13 04:10:50;;;;;;;5.70;2.00;;;;;;;20.42;44.18;97995.81;8317199;28;20237;-75
2022/06/13 04:15:08;;;;;;;3.33;2.10;;;;;;;20.37;44.07;97995.41;8318155;28;20263;-75
2022/06/13 04:19:24;;;;;;;8.43;2.10;;;;;;;20.33;44.22;97999.22;8318140;28;20237;-76
2022/06/13 04:23:33;;;;;;;3.63;1.97;;;;;;;20.34;44.56;98003.53;8317654;28;20244;-74
2022/06/13 04:27:41;;;;;;;5.27;2.13;;;;;;;20.32;44.33;98008.09;8317663;28;20242;-75
2022/06/13 04:31:45;;;;;;;4.37;2.10;;;;;;;20.36;44.58;98006.88;8317651;28;20224;-75
2022/06/13 04:35:50;;;;;;;7.47;2.30;;;;;;;20.40;44.70;98010.06;8317541;28;20408;-75
2022/06/13 04:39:58;;;;;;;5.67;2.17;;;;;;;20.38;44.48;98014.63;8317472;28;20238;-75
2022/06/13 04:44:03;;;;;;;5.57;2.20;;;;;;;20.45;44.01;98021.06;8317023;28;20259;-75
2022/06/13 04:48:06;;;;;;;9.90;2.40;;;;;;;20.47;44.15;98019.13;8317158;28;20553;-75
2022/06/13 04:52:13;;;;;;;3.80;2.10;;;;;;;20.51;44.36;98024.00;8317092;28;20233;-76
2022/06/13 04:56:16;;;;;;;4.20;2.07;;;;;;;20.58;44.00;98031.34;8316972;28;20246;-76
2022/06/13 05:00:20;;;;;;;6.83;2.13;;;;;;;20.59;44.20;98051.44;8316789;28;20228;-76
2022/06/13 05:04:25;;;;;;;5.27;2.37;;;;;;;20.61;44.24;98055.66;8324327;28;20239;-75
2022/06/13 05:08:32;;;;;;;6.23;2.33;;;;;;;20.78;43.55;98062.13;8316636;28;20239;-75
2022/06/13 05:12:39;;;;;;;6.30;2.00;;;;;;;20.79;43.43;98074.31;8316505;28;20237;-75
2022/06/13 05:16:56;;;;;;;4.77;1.97;;;;;;;20.76;42.07;98077.19;8316319;28;20457;-75
2022/06/13 05:21:07;;;;;;;9.60;2.23;;;;;;;20.86;41.24;98069.34;8315788;28;20243;-75
2022/06/13 05:25:26;;;;;;;5.47;2.23;;;;;;;20.92;41.44;98075.91;8316090;28;20236;-75
2022/06/13 05:29:29;;;;;;;5.53;2.10;;;;;;;20.95;41.55;98073.84;8315622;28;20237;-75
2022/06/13 05:33:34;;;;;;;7.30;2.20;;;;;;;21.01;41.40;98075.94;8315782;28;20240;-75
2022/06/13 05:37:37;;;;;;;6.40;2.10;;;;;;;21.06;41.62;98072.94;8315836;28;20236;-75
2022/06/13 05:41:41;;;;;;;7.40;2.20;;;;;;;21.01;41.71;98078.56;8315479;28;20232;-75
2022/06/13 05:45:44;;;;;;;10.33;2.43;;;;;;;20.97;41.30;98092.16;8315546;28;20396;-76
2022/06/13 05:49:47;;;;;;;5.70;2.53;;;;;;;20.98;41.55;98094.66;8315466;28;20232;-75
2022/06/13 05:53:50;;;;;;;8.03;2.33;;;;;;;21.32;41.04;98097.00;8315362;28;20228;-75
2022/06/13 05:57:55;;;;;;;8.00;2.27;;;;;;;21.15;40.88;98101.13;8315196;28;20231;-75
2022/06/13 06:01:57;;;;;;;8.00;2.40;;;;;;;21.18;41.32;98098.19;8315103;28;20244;-75
2022/06/13 06:06:01;;;;;;;6.27;2.47;;;;;;;21.42;41.01;98097.06;8315123;28;20246;-76
2022/06/13 06:10:06;;;;;;;9.63;2.23;;;;;;;21.41;41.23;98098.84;8314925;28;20240;-75
2022/06/13 06:14:10;;;;;;;7.77;2.80;;;;;;;21.46;40.82;98098.50;8314844;28;20235;-75
2022/06/13 06:18:14;;;;;;;6.53;2.57;;;;;;;21.76;40.93;98108.16;8314891;28;20235;-75
2022/06/13 06:22:17;;;;;;;8.30;2.33;;;;;;;21.78;41.22;98116.75;8314660;28;20247;-76
2022/06/13 06:26:22;;;;;;;9.77;2.30;;;;;;;22.00;40.72;98114.84;8314644;28;20228;-75
2022/06/13 06:30:27;;;;;;;8.00;2.87;;;;;;;22.10;40.21;98115.69;8314093;28;20228;-74
2022/06/13 06:34:29;;;;;;;6.80;2.33;;;;;;;22.26;39.62;98120.47;8321345;28;20233;-75
2022/06/13 06:38:32;;;;;;;10.53;2.80;;;;;;;22.21;39.36;98120.81;8321238;28;20438;-75
2022/06/13 06:42:35;;;;;;;9.40;2.90;;;;;;;22.29;40.75;98119.34;8320973;28;20243;-75
2022/06/13 06:46:57;;;;;;;7.83;2.60;;;;;;;22.55;39.78;98120.44;8320993;28;20230;-75
2022/06/13 06:50:59;;;;;;;9.43;2.67;;;;;;;22.70;38.98;98127.94;8320906;28;20239;-76
2022/06/13 07:03:53;;;;;;;8.03;2.53;;;;;;;22.43;39.45;98132.13;8320403;28;20259;-75
2022/06/13 07:07:56;;;;;;;6.13;2.30;;;;;;;22.56;39.20;98131.84;8320432;28;20232;-76
2022/06/13 07:11:58;;;;;;;8.83;2.67;;;;;;;22.97;38.80;98130.66;8320321;28;20246;-75
2022/06/13 07:16:01;;;;;;;8.27;2.40;;;;;;;23.20;38.77;98122.44;8320076;28;20233;-76
2022/06/13 07:20:07;;;;;;;12.10;2.80;;;;;;;23.51;38.79;98127.47;8319991;28;20236;-76
2022/06/13 07:24:10;;;;;;;8.30;2.67;;;;;;;23.41;37.12;98125.69;8319808;28;20248;-76
2022/06/13 07:28:13;;;;;;;9.83;2.93;;;;;;;23.70;37.62;98127.38;8319794;28;20241;-76
2022/06/13 07:32:21;;;;;;;8.30;2.67;;;;;;;23.88;36.53;98143.31;8319530;28;20228;-76
2022/06/13 07:36:25;;;;;;;11.07;3.03;;;;;;;24.09;36.27;98140.41;8319240;28;20233;-75
2022/06/13 07:40:28;;;;;;;8.97;2.93;;;;;;;23.96;36.05;98145.22;8319310;28;20239;-75
2022/06/13 07:44:34;;;;;;;9.70;2.80;;;;;;;23.86;36.97;98145.28;8318864;28;20238;-75
2022/06/13 07:48:36;;;;;;;10.87;2.50;;;;;;;24.44;36.51;98149.31;8319154;28;20225;-75
2022/06/13 07:52:41;;;;;;;8.93;2.50;;;;;;;24.58;36.14;98145.38;8319119;28;20573;-75
2022/06/13 07:56:44;;;;;;;8.47;2.80;;;;;;;24.92;34.74;98149.91;8318989;28;20250;-75
2022/06/13 08:00:49;;;;;;;8.13;2.60;;;;;;;25.21;34.32;98146.97;8318750;28;20225;-75
2022/06/13 08:04:52;;;;;;;10.67;2.93;;;;;;;25.15;33.96;98147.56;8318517;28;20236;-75
2022/06/13 08:09:03;;;;;;;7.17;2.40;;;;;;;25.42;33.83;98159.88;8318448;28;20259;-76
2022/06/13 08:13:06;;;;;;;10.10;2.87;;;;;;;25.56;34.04;98156.63;8318349;28;20243;-75
2022/06/13 08:17:09;;;;;;;10.93;2.70;;;;;;;25.83;33.47;98164.53;8318247;28;20296;-76
2022/06/13 08:21:12;;;;;;;8.93;2.90;;;;;;;25.55;33.34;98162.06;8318095;28;20233;-75
2022/06/13 08:25:20;;;;;;;11.70;3.23;;;;;;;26.06;32.83;98160.31;8317842;28;20233;-76
2022/06/13 08:29:23;;;;;;;7.83;2.93;;;;;;;26.03;32.43;98165.97;8350336;28;20240;-75
2022/06/13 08:33:26;;;;;;;8.70;2.33;;;;;;;26.55;32.38;98164.06;8350415;28;20231;-75
2022/06/13 08:37:29;;;;;;;6.60;2.57;;;;;;;27.11;32.40;98165.91;8350515;28;20560;-75
2022/06/13 08:41:41;;;;;;;13.00;3.10;;;;;;;25.83;33.49;98168.00;8350346;28;20436;-75
2022/06/13 08:45:48;;;;;;;12.90;3.60;;;;;;;25.64;33.16;98181.53;8350128;28;20514;-75
2022/06/13 08:50:05;;;;;;;11.20;2.77;;;;;;;26.06;31.61;98170.91;8350057;28;20230;-76
2022/06/13 08:54:10;;;;;;;8.37;2.80;;;;;;;26.37;30.95;98178.31;8349179;28;20231;-76
2022/06/13 08:58:21;;;;;;;9.17;2.90;;;;;;;26.34;31.63;98173.31;8349721;28;20539;-75
2022/06/13 09:02:28;;;;;;;15.20;3.20;;;;;;;26.31;31.27;98182.44;8349230;28;20226;-76
2022/06/13 09:06:37;;;;;;;8.13;3.10;;;;;;;26.98;30.39;98189.50;8349351;28;20616;-76
2022/06/13 09:10:43;;;;;;;15.20;2.90;;;;;;;27.31;29.25;98186.81;8349325;28;20232;-76
2022/06/13 09:14:52;;;;;;;6.83;2.53;;;;;;;26.22;30.50;98195.88;8349426;28;20519;-75
2022/06/13 09:19:00;;;;;;;10.23;2.83;;;;;;;26.76;28.36;98187.50;8349130;28;20425;-76
2022/06/13 09:23:11;;;;;;;9.43;2.60;;;;;;;25.72;30.95;98193.00;8347750;28;20414;-76
2022/06/13 09:27:19;;;;;;;10.73;2.83;;;;;;;26.40;29.51;98193.06;8348914;28;20435;-76
2022/06/13 09:31:27;;;;;;;9.10;2.70;;;;;;;25.46;30.68;98195.69;8348359;28;20428;-74
2022/06/13 09:35:33;;;;;;;7.53;2.53;;;;;;;26.66;29.07;98196.47;8348705;28;20245;-75
2022/06/13 09:39:41;;;;;;;6.63;2.43;;;;;;;27.09;27.45;98194.47;8348418;28;20235;-76
2022/06/13 09:43:53;;;;;;;5.80;2.43;;;;;;;27.67;27.93;98197.03;8348074;28;20230;-76
2022/06/13 09:48:03;;;;;;;9.20;2.50;;;;;;;27.01;26.57;98202.44;8348277;28;20247;-76
2022/06/13 09:52:15;;;;;;;5.90;2.47;;;;;;;27.39;25.83;98204.59;8348051;28;20570;-76
2022/06/13 09:56:22;;;;;;;5.00;2.07;;;;;;;28.19;25.50;98193.84;8347776;28;20230;-76
2022/06/13 10:00:30;;;;;;;8.53;2.53;;;;;;;27.72;25.19;98199.16;8314812;28;20227;-75
2022/06/13 10:04:40;;;;;;;5.80;2.20;;;;;;;28.02;24.78;98202.91;8314961;28;20438;-76
2022/06/13 10:08:58;;;;;;;6.83;2.50;;;;;;;27.65;24.38;98199.88;8314732;28;20246;-76
2022/06/13 10:13:16;;;;;;;9.00;2.60;;;;;;;28.13;25.05;98196.38;8314883;28;20442;-76
2022/06/13 10:17:30;;;;;;;7.10;2.40;;;;;;;28.37;23.66;98201.56;8314616;28;20230;-76
2022/06/13 10:21:38;;;;;;;9.10;2.00;;;;;;;26.69;25.24;98211.22;8314569;28;20235;-76
2022/06/13 10:25:52;;;;;;;8.83;2.10;;;;;;;26.12;26.12;98203.94;8314412;28;20867;-76
2022/06/13 10:30:08;;;;;;;7.57;2.50;;;;;;;25.35;27.83;98210.03;8314291;28;20229;-76
2022/06/13 10:34:24;;;;;;;9.03;2.33;;;;;;;26.80;27.26;98218.06;8314803;28;20437;-76
2022/06/13 10:38:38;;;;;;;6.60;2.27;;;;;;;27.85;26.01;98202.97;8314257;28;20294;-75
2022/06/13 10:42:41;;;;;;;6.57;1.93;;;;;;;28.12;24.97;98198.22;8314265;28;20240;-76
2022/06/13 10:46:44;;;;;;;5.60;1.83;;;;;;;28.11;24.66;98209.03;8314430;28;20249;-76
2022/06/13 10:50:50;;;;;;;6.70;2.40;;;;;;;27.43;25.50;98205.91;8314461;28;20230;-75
2022/06/13 10:54:56;;;;;;;7.50;1.90;;;;;;;26.09;25.54;98210.41;8314325;28;20238;-76
2022/06/13 10:59:00;;;;;;;7.77;2.00;;;;;;;25.54;26.29;98208.97;8314104;28;20234;-76
2022/06/13 11:03:14;;;;;;;7.67;2.00;;;;;;;26.02;26.40;98222.66;8314028;28;20238;-76
2022/06/13 11:07:18;;;;;;;7.67;1.73;;;;;;;25.79;26.32;98225.00;8314115;28;20250;-76
2022/06/13 11:11:31;;;;;;;5.03;1.80;;;;;;;26.92;24.13;98227.34;8314043;28;20237;-76
2022/06/13 11:24:23;;;;;;;3.97;1.73;;;;;;;25.00;25.79;98247.16;8319947;28;20251;-76
2022/06/13 11:28:29;;;;;;;5.37;1.60;;;;;;;25.98;24.49;98241.72;8319497;28;20230;-75
2022/06/13 11:32:32;;;;;;;3.43;1.30;;;;;;;27.14;23.40;98233.84;8319376;28;20252;-76
2022/06/13 11:36:35;;;;;;;5.90;1.60;;;;;;;27.61;21.51;98232.31;8319591;28;20448;-75
2022/06/13 11:40:38;;;;;;;4.60;1.43;;;;;;;28.04;20.68;98233.66;8319429;28;20551;-76
2022/06/13 11:44:47;;;;;;;4.07;1.50;;;;;;;28.68;21.35;98229.22;8319149;28;20238;-76
2022/06/13 11:48:50;;;;;;;5.47;1.73;;;;;;;29.01;20.32;98229.78;8319168;28;20237;-76
2022/06/13 11:57:21;;;;;;;3.63;1.53;;;;;;;28.25;23.42;98227.78;8318781;28;20595;-76
2022/06/13 12:01:30;;;;;;;3.37;1.13;;;;;;;28.04;21.71;98231.00;8326337;28;20236;-75
2022/06/13 12:05:35;;;;;;;4.00;1.30;;;;;;;27.42;23.91;98229.03;8318297;28;20545;-76
2022/06/13 12:09:40;;;;;;;5.43;1.60;;;;;;;28.20;23.92;98219.47;8318403;28;20232;-76
2022/06/13 12:13:46;;;;;;;7.83;1.70;;;;;;;28.05;22.21;98226.53;8318218;28;20228;-76
2022/06/13 12:17:54;;;;;;;7.50;1.67;;;;;;;27.02;23.26;98232.53;8318401;28;20234;-76
2022/06/13 12:22:01;;;;;;;6.03;1.63;;;;;;;28.46;22.92;98231.63;8318223;28;20294;-76
2022/06/13 12:26:08;;;;;;;5.60;1.50;;;;;;;28.42;22.56;98232.97;8318105;28;20239;-76
2022/06/13 12:30:33;;;;;;;4.20;1.80;;;;;;;28.12;21.82;98238.16;8316908;28;20239;-76
2022/06/13 12:34:42;;;;;;;4.73;1.90;;;;;;;27.76;22.66;98235.94;8317472;28;20227;-75
2022/06/13 12:38:59;;;;;;;5.93;1.90;;;;;;;28.03;22.71;98236.53;8317561;28;20231;-76
2022/06/13 12:43:18;;;;;;;5.90;1.83;;;;;;;27.72;22.77;98236.41;8317148;28;20445;-76
2022/06/13 12:47:43;;;;;;;15.37;2.20;;;;;;;28.21;22.55;98234.41;8316892;28;20272;-75
2022/06/13 12:51:56;;;;;;;6.83;1.80;;;;;;;27.83;21.73;98247.50;8317207;28;20225;-76
2022/06/13 12:56:06;;;;;;;3.77;1.57;;;;;;;28.08;21.24;98234.16;8317075;28;20228;-76
2022/06/13 13:00:15;;;;;;;3.93;1.50;;;;;;;27.25;23.03;98243.34;8316905;28;20248;-76
2022/06/13 13:04:41;;;;;;;5.30;1.90;;;;;;;26.36;24.31;98244.84;8316704;28;20242;-76
2022/06/13 13:08:58;;;;;;;10.03;2.00;;;;;;;25.80;23.72;98257.66;8320299;28;20232;-77
2022/06/13 13:13:40;;;;;;;5.07;1.70;;;;;;;25.86;24.39;98254.41;8316375;28;20471;-76
2022/06/13 13:17:48;;;;;;;5.03;1.80;;;;;;;26.83;23.46;98245.13;8316168;28;20420;-76
2022/06/13 13:21:54;;;;;;;8.13;1.73;;;;;;;26.80;23.34;98247.28;8316422;28;20246;-76
2022/06/13 13:26:02;;;;;;;6.23;1.93;;;;;;;25.92;24.76;98251.97;8315978;28;20246;-76
2022/06/13 13:30:15;;;;;;;6.60;1.73;;;;;;;25.94;25.30;98265.91;8316040;28;20230;-76
2022/06/13 13:34:38;;;;;;;6.80;1.97;;;;;;;25.28;25.44;98267.28;8315964;28;20561;-76
2022/06/13 13:38:45;;;;;;;5.67;2.00;;;;;;;26.03;25.22;98265.97;8321012;28;20227;-76
2022/06/13 13:42:53;;;;;;;6.23;1.90;;;;;;;25.66;24.59;98259.91;8315349;28;20263;-76
2022/06/13 13:47:00;;;;;;;7.50;2.10;;;;;;;25.35;25.66;98276.28;8315658;28;20242;-76
2022/06/13 13:51:07;;;;;;;6.23;2.57;;;;;;;25.23;26.68;98280.19;8315503;28;20238;-76
2022/06/13 13:55:14;;;;;;;6.93;2.23;;;;;;;25.05;27.19;98276.69;8315322;28;20283;-75
2022/06/13 13:59:20;;;;;;;11.33;2.63;;;;;;;25.03;26.18;98282.13;8315178;28;20230;-76
2022/06/13 14:03:30;;;;;;;7.27;3.00;;;;;;;25.33;26.48;98282.75;8314888;28;20222;-75
2022/06/13 14:07:57;;;;;;;5.73;2.67;;;;;;;25.12;26.50;98289.16;8314890;28;20244;-75
2022/06/13 14:12:08;;;;;;;4.93;2.13;;;;;;;24.52;26.36;98283.59;8315053;28;20239;-75
2022/06/13 14:16:18;;;;;;;6.47;2.07;;;;;;;25.25;26.38;98296.75;8314805;28;20235;-75
2022/06/13 14:20:24;;;;;;;7.07;2.00;;;;;;;25.67;25.79;98295.25;8314890;28;20237;-75
2022/06/13 14:24:30;;;;;;;4.73;2.07;;;;;;;25.56;25.78;98291.84;8314274;28;20426;-75
2022/06/13 14:28:48;;;;;;;5.67;2.43;;;;;;;26.16;25.42;98276.97;8314551;28;20238;-74
2022/06/13 14:32:58;;;;;;;8.10;2.33;;;;;;;26.16;26.52;98300.00;8313576;28;20236;-75
2022/06/13 14:37:12;;;;;;;9.10;2.57;;;;;;;26.10;25.56;98296.16;8314541;28;20229;-75
2022/06/13 14:41:33;;;;;;;8.17;2.60;;;;;;;26.53;25.81;98289.84;8314290;28;20253;-75
2022/06/13 14:45:38;;;;;;;10.70;2.53;;;;;;;26.52;25.83;98290.00;8314336;28;20296;-75
2022/06/13 14:49:49;;;;;;;8.87;2.50;;;;;;;26.51;25.82;98291.84;8314283;28;20241;-75
2022/06/13 14:53:52;;;;;;;7.53;2.30;;;;;;;26.86;26.45;98289.13;8318240;28;20237;-75
2022/06/13 14:57:55;;;;;;;10.40;2.60;;;;;;;26.52;26.05;98297.97;8320800;28;20641;-75
2022/06/13 15:02:24;;;;;;;7.73;2.40;;;;;;;25.59;26.67;98311.09;8320676;28;20263;-77
2022/06/13 15:06:42;;;;;;;10.03;2.30;;;;;;;25.52;27.89;98314.34;8320174;28;20243;-75
2022/06/13 15:10:47;;;;;;;7.03;2.10;;;;;;;26.01;26.65;98305.06;8320562;28;20419;-75
2022/06/13 15:14:53;;;;;;;5.67;2.13;;;;;;;26.05;25.87;98304.59;8320194;28;20545;-75
2022/06/13 15:19:03;;;;;;;5.37;2.20;;;;;;;25.61;26.62;98307.31;8320201;28;20241;-75
2022/06/13 15:23:11;;;;;;;6.03;2.33;;;;;;;25.55;25.61;98315.84;8319956;28;20328;-75
2022/06/13 15:27:14;;;;;;;7.27;2.30;;;;;;;25.00;26.54;98321.34;8319649;28;20298;-75
2022/06/13 15:31:25;;;;;;;8.13;2.07;;;;;;;25.24;26.88;98328.72;8319649;28;20426;-75
2022/06/13 15:35:37;;;;;;;6.67;2.43;;;;;;;25.66;26.83;98322.75;8318996;28;20233;-75
2022/06/13 15:39:47;;;;;;;8.67;2.47;;;;;;;25.91;26.09;98319.31;8319466;28;20233;-75
2022/06/13 15:43:52;;;;;;;6.80;2.70;;;;;;;25.85;26.06;98317.22;8319115;28;20250;-75
2022/06/13 15:47:55;;;;;;;9.53;3.70;;;;;;;25.63;26.76;98321.25;8319190;28;20242;-76
2022/06/13 15:52:01;;;;;;;6.73;3.90;;;;;;;25.54;26.45;98317.69;8319147;28;20231;-75
2022/06/13 15:56:06;;;;;;;11.70;3.27;;;;;;;25.56;26.88;98322.84;8319046;28;20303;-75
2022/06/13 16:00:10;;;;;;;5.20;2.00;;;;;;;25.60;26.09;98305.63;8318833;28;20235;-75
2022/06/13 16:04:16;;;;;;;6.73;2.57;;;;;;;25.33;27.02;98309.25;8318548;28;20237;-75
2022/06/13 16:08:19;;;;;;;11.50;2.90;;;;;;;24.92;26.79;98315.00;8318396;28;20302;-75
2022/06/13 16:12:27;;;;;;;5.50;2.60;;;;;;;25.29;26.25;98306.06;8342652;28;20229;-75
2022/06/13 16:16:31;;;;;;;7.30;2.60;;;;;;;24.97;27.03;98317.19;8351016;28;20233;-74
2022/06/13 16:20:36;;;;;;;7.00;2.23;;;;;;;25.06;27.79;98326.03;8350948;28;20571;-75
2022/06/13 16:24:41;;;;;;;7.33;3.30;;;;;;;25.35;26.82;98326.66;8350783;28;20233;-75
2022/06/13 16:28:45;;;;;;;7.37;2.57;;;;;;;25.21;27.35;98327.19;8350699;28;20228;-75
2022/06/13 16:32:50;;;;;;;8.57;2.40;;;;;;;25.11;27.40;98329.06;8350574;28;20222;-75
2022/06/13 16:36:59;;;;;;;5.73;2.40;;;;;;;25.22;27.15;98323.53;8350634;28;20238;-75
2022/06/13 16:41:02;;;;;;;11.60;2.63;;;;;;;24.67;28.20;98321.00;8350258;28;20542;-75
2022/06/13 16:45:11;;;;;;;8.73;2.73;;;;;;;24.54;27.97;98319.56;8350021;28;20430;-75
2022/06/13 16:49:15;;;;;;;6.70;2.50;;;;;;;24.57;28.94;98321.88;8350039;28;20230;-75
2022/06/13 16:53:18;;;;;;;7.30;2.93;;;;;;;24.50;28.76;98318.16;8350102;28;20236;-76
2022/06/13 16:57:23;;;;;;;10.83;2.80;;;;;;;24.52;29.17;98332.09;8349818;28;20237;-75
2022/06/13 17:01:40;;;;;;;7.67;2.70;;;;;;;24.33;28.89;98334.81;8316678;28;20234;-75
2022/06/13 17:05:47;;;;;;;6.13;2.53;;;;;;;24.27;29.14;98335.38;8316714;28;20237;-75
2022/06/13 17:10:04;;;;;;;8.20;2.70;;;;;;;24.39;29.56;98335.06;8316591;28;20238;-74
2022/06/13 17:14:07;;;;;;;7.80;3.30;;;;;;;23.80;30.10;98339.72;8316249;28;20232;-75
2022/06/13 17:18:13;;;;;;;7.87;3.00;;;;;;;23.90;30.25;98334.41;8316065;28;20432;-76
2022/06/13 17:22:16;;;;;;;12.20;2.97;;;;;;;23.83;29.78;98335.13;8316482;28;20243;-75
2022/06/13 17:34:57;;;;;;;8.07;2.90;;;;;;;23.72;30.36;98334.28;8316027;28;20537;-75
2022/06/13 17:39:00;;;;;;;11.97;3.20;;;;;;;23.52;29.91;98336.13;8315992;28;20244;-75
2022/06/13 17:43:03;;;;;;;8.97;3.07;;;;;;;23.36;30.40;98339.34;8315608;28;20236;-76
2022/06/13 17:47:08;;;;;;;6.27;3.10;;;;;;;23.14;30.57;98339.63;8315701;28;20242;-74
2022/06/13 17:51:12;;;;;;;7.03;3.30;;;;;;;23.35;30.45;98337.66;8315621;28;20557;-75
2022/06/13 17:55:15;;;;;;;9.57;2.80;;;;;;;23.32;30.99;98339.75;8315522;28;20236;-75
2022/06/13 17:59:18;;;;;;;6.63;3.10;;;;;;;23.17;30.68;98349.91;8315593;28;20244;-75
2022/06/13 18:03:22;;;;;;;6.67;3.33;;;;;;;22.94;30.54;98354.56;8315389;28;20228;-75
2022/06/13 18:07:27;;;;;;;7.27;3.20;;;;;;;23.10;30.43;98352.28;8314778;28;20275;-74
2022/06/13 18:11:30;;;;;;;6.47;2.60;;;;;;;23.22;31.14;98350.31;8315111;28;20232;-74
2022/06/13 18:15:33;;;;;;;7.30;3.27;;;;;;;22.85;31.68;98361.53;8315261;28;20232;-75
2022/06/13 18:19:37;;;;;;;7.67;3.10;;;;;;;22.97;31.19;98357.78;8314787;28;20410;-75
2022/06/13 18:23:41;;;;;;;5.47;3.00;;;;;;;22.90;31.30;98356.66;8314953;28;20554;-75
2022/06/13 18:27:47;;;;;;;9.77;3.37;;;;;;;23.04;31.55;98360.75;8313656;28;20232;-75
2022/06/13 18:31:49;;;;;;;5.83;3.00;;;;;;;23.02;31.67;98354.75;8314473;28;20228;-75
2022/06/13 18:35:52;;;;;;;7.13;3.40;;;;;;;22.99;32.15;98363.75;8314392;28;20478;-75
2022/06/13 18:39:56;;;;;;;7.13;3.47;;;;;;;22.98;32.09;98366.53;8314364;28;20232;-75
2022/06/13 18:44:01;;;;;;;8.57;3.73;;;;;;;22.94;32.66;98363.34;8314329;28;20243;-75
2022/06/13 18:48:05;;;;;;;9.30;3.40;;;;;;;22.77;33.09;98361.34;8314168;28;20248;-75
2022/06/13 18:52:08;;;;;;;11.37;3.40;;;;;;;22.77;33.19;98362.19;8314215;28;20572;-75
2022/06/13 18:56:13;;;;;;;13.93;3.23;;;;;;;22.74;33.42;98361.63;8314176;28;20547;-75
2022/06/13 19:00:19;;;;;;;9.03;3.50;;;;;;;22.68;33.13;98363.00;8314081;28;20236;-75
2022/06/13 19:04:23;;;;;;;8.03;3.30;;;;;;;22.59;33.54;98363.81;8321717;28;20337;-74
2022/06/13 19:08:28;;;;;;;6.60;3.20;;;;;;;22.47;33.57;98363.09;8314120;28;20413;-75
2022/06/13 19:12:32;;;;;;;9.63;3.13;;;;;;;22.51;34.04;98372.41;8313815;28;20233;-75
2022/06/13 19:16:36;;;;;;;5.93;3.17;;;;;;;22.41;33.94;98377.66;8313829;28;20232;-74
2022/06/13 19:20:39;;;;;;;7.40;3.30;;;;;;;22.30;34.09;98376.91;8313722;28;20276;-75
2022/06/13 19:24:42;;;;;;;10.63;3.53;;;;;;;22.28;35.16;98389.41;8313848;28;20244;-75
2022/06/13 19:28:50;;;;;;;8.30;3.20;;;;;;;22.18;34.96;98392.78;8313623;28;20240;-75
2022/06/13 19:32:56;;;;;;;6.97;3.27;;;;;;;22.12;35.09;98401.19;8313663;28;20233;-75
2022/06/13 19:37:00;;;;;;;10.23;3.50;;;;;;;22.01;35.48;98412.69;8313524;28;20237;-75
2022/06/13 19:41:03;;;;;;;9.87;3.57;;;;;;;21.94;35.37;98416.78;8318762;28;20247;-75
2022/06/13 19:45:11;;;;;;;6.57;3.07;;;;;;;21.95;35.38;98426.38;8319031;28;20266;-75
2022/06/13 19:49:13;;;;;;;7.27;3.77;;;;;;;21.77;35.72;98420.84;8319021;28;20540;-75
2022/06/13 19:53:16;;;;;;;6.87;3.47;;;;;;;21.83;35.75;98430.84;8318955;28;20228;-75